Flight Track Log - Related Links

Times and Time Zones

All times are in EDT time to prevent confusion due to time zone crossing. See the THU880 flight status page for this flight to view local times or setup timezone preferences in your user account.

Time Position Orientation Groundspeed Altitude Reporting Facility
EDT Latitude Longitude Course Direction KTS MPH feet Rate Location/Type
Sat 11:08:34 AM 48.3333 -89.2667 305° West 150 173 1,500  Level Winnipeg Center
Sat 11:09:34 AM 48.3167 -89.1833 107° East 170 196 3,300 1,950 Climbing Winnipeg Center
Sat 11:10:34 AM 48.2833 -89.2500 233° Southwest 180 207 5,400 1,884 Climbing Winnipeg Center
Sat 11:11:35 AM 48.3000 -89.3167 291° West 180 207 7,100 1,736 Climbing Winnipeg Center
Sat 11:12:35 AM 48.2833 -89.4000 253° West 190 219 8,900 1,815 Climbing Winnipeg Center
Sat 11:13:34 AM 48.2667 -89.4833 253° West 190 219 10,700 1,664 Climbing Winnipeg Center
Sat 11:14:00 AM 48.6127 -89.8635 305° West  Level FlightAware Approximate
Sat 11:14:34 AM 48.3000 -89.5500 307° West 200 230 12,200  Level Winnipeg Center
Sat 11:15:34 AM 48.3000 -89.6167 270° West 190 219 14,000 1,686 Climbing Winnipeg Center
Sat 11:16:35 AM 48.3000 -89.7167 270° West 190 219 15,600 1,438 Climbing Winnipeg Center
Sat 11:17:35 AM 48.3333 -89.8000 301° West 200 230 16,900 1,210 Climbing Winnipeg Center
Sat 11:18:34 AM 48.3333 -89.8667 270° West 200 230 18,000 600 Climbing Winnipeg Center
Sat 11:19:35 AM 48.3500 -89.9667 284° West 240 276 18,100  Climbing Winnipeg Center
Sat 11:20:34 AM 48.3667 -90.0667 284° West 260 299 18,000 -50 Descending Winnipeg Center
Sat 11:21:34 AM 48.4000 -90.1667 297° West 270 311 18,000 -50 Level Winnipeg Center
Sat 11:22:34 AM 48.4500 -90.2500 312° West 280 322 17,900 50 Descending Winnipeg Center
Sat 11:23:34 AM 48.5167 -90.3167 326° Northwest 280 322 18,100 50 Climbing Winnipeg Center
Sat 11:24:34 AM 48.5667 -90.4167 307° West 280 322 18,000 -50 Descending Winnipeg Center
Sat 11:25:34 AM 48.6167 -90.5167 307° West 280 322 18,000 -50 Level Winnipeg Center
Sat 11:26:34 AM 48.6667 -90.5833 319° Northwest 280 322 17,900  Descending Winnipeg Center
Sat 11:27:34 AM 48.7167 -90.6833 307° West 280 322 18,000  Climbing Winnipeg Center
Sat 11:28:34 AM 48.7667 -90.7667 312° West 280 322 17,900  Descending Winnipeg Center
Sat 11:29:34 AM 48.8333 -90.8667 315° West 280 322 18,000 50 Climbing Winnipeg Center
Sat 11:30:34 AM 48.8667 -90.9667 297° West 280 322 18,000  Level Winnipeg Center
Sat 11:31:34 AM 48.9167 -91.0333 319° Northwest 280 322 18,000  Level Winnipeg Center
Sat 11:32:34 AM 48.9667 -91.1333 307° West 280 322 18,000  Level Winnipeg Center
Sat 11:33:34 AM 49.0167 -91.2333 307° West 280 322 18,000  Level Winnipeg Center
Sat 11:34:34 AM 49.0667 -91.3167 312° West 280 322 18,000 50 Level Winnipeg Center
Sat 11:35:34 AM 49.1000 -91.4167 297° West 280 322 18,100  Climbing Winnipeg Center
Sat 11:36:34 AM 49.1667 -91.5167 316° Northwest 280 322 18,000 -50 Descending Winnipeg Center
Sat 11:37:34 AM 49.2167 -91.5833 319° Northwest 280 322 18,000 -650 Level Winnipeg Center
Sat 11:38:34 AM 49.2667 -91.6833 307° West 290 334 16,700 -1,587 Descending Winnipeg Center
Sat 11:39:35 AM 49.3167 -91.7833 308° West 310 357 14,800 -1,950 Descending Winnipeg Center
Sat 11:40:34 AM 49.3833 -91.9000 311° West 310 357 12,800 -1,966 Descending Winnipeg Center
Sat 11:41:34 AM 49.4333 -91.9667 319° Northwest 290 334 10,900 -2,050 Descending Winnipeg Center
Sat 11:42:34 AM 49.4833 -92.0667 308° West 280 322 8,700 -1,850 Descending Winnipeg Center
Sat 11:43:34 AM 49.5333 -92.1667 308° West 290 334 7,200 -1,537 Descending Winnipeg Center
Sat 11:44:35 AM 49.5833 -92.2667 308° West 280 322 5,600 -1,200 Descending Winnipeg Center
Sat 11:45:34 AM 49.6333 -92.3333 319° Northwest 270 311 4,800 -807 Descending Winnipeg Center
Sat 11:46:34 AM 49.6667 -92.4333 297° West 260 299 4,000 -800 Descending Winnipeg Center
Sat 11:47:34 AM 49.7167 -92.5167 313° West 250 288 3,200 -450 Descending Winnipeg Center
Sat 11:48:34 AM 49.7667 -92.5833 319° Northwest 220 253 3,100 -50 Descending Winnipeg Center
Sat 11:49:35 AM 49.8167 -92.6333 327° Northwest 210 242 3,100  Level Winnipeg Center
Sat 11:50:34 AM 49.8500 -92.7167 302° West 210 242 3,100  Level Winnipeg Center
Sat 11:51:34 AM 49.8833 -92.7833 308° West 210 242 3,100 -50 Level Winnipeg Center
Sat 11:52:34 AM 49.9167 -92.8333 316° Northwest 190 219 3,000 100 Descending Winnipeg Center
Sat 11:53:34 AM 49.9333 -92.9167 287° West 180 207 3,300 50 Climbing Winnipeg Center
Sat 11:54:35 AM 49.9000 -92.9333 198° South 170 196 3,100 -200 Descending Winnipeg Center
Sat 11:55:34 AM 49.8667 -92.9167 162° South 160 184 2,900 -50 Descending Winnipeg Center
Sat 11:56:34 AM 49.8500 -92.8333 107° East 150 173 3,000 -200 Climbing Winnipeg Center
Sat 11:57:34 AM 49.8333 -92.7833 117° Southeast 140 161 2,500 -700 Descending Winnipeg Center
Sat 11:58:34 AM 49.8167 -92.7333 117° Southeast 130 150 1,600 -550 Descending Winnipeg Center
Sat 11:59:34 AM 49.8167 -92.7167 90° East 70 81 1,400 -100 Descending Winnipeg Center
Sat 12:00:34 PM 49.8167 -92.7167 90° East 40 46 1,400  Level Winnipeg Center

Login

Don't have an account? Register now (free) for customized features, flight alerts, and more!